Honomu, Hawaii
Current Conditions -  °F | °C
As of 5:53 AM on Saturday 20 Dec 2014 (Local Time) from PHTO Reporting Station
Overcast Overcast  
Wind Chill: 68°   Ceiling: 5000
Heat Index: 68°   Visibility: 10mi
Dew Point: 61°   Wind: 9mph
Humidity: 78%   Direction: 220°SW
Pressure: 30.05"   Gusts: NA
Location:  19.87°N, 155.1°W
Report Text: PHTO 201553Z 22008KT 10SM FEW030 OVC050 20/16 A3005 RMK AO2 SLP173 T02000161 $
Loading
Personal Weather Stations






























Interactive Weather Map New forecast layout! Learn more

10-Day Weather Forecast

Advertisements
Track Severe Weather on mobile